Time;durP1;ratioP1;P1;durP2;ratioP2;P2;SDS_P1;SDS_P2;PMS_P1;PMS_P2;Temp;Humidity;BMP_temperature;BMP_pressure;BME280_temperature;BME280_humidity;BME280_pressure;Samples;Min_cycle;Max_cycle;Signal;HPM_P1;HPM_P2
2023/07/14 00:01:23;;;;;;;5.97;2.00;;;;;;;18.38;94.22;92799.34;4854641;29;20085;-79
2023/07/14 00:03:49;;;;;;;8.48;2.05;;;;;;;18.29;93.18;92796.75;4854496;29;20037;-79
2023/07/14 00:06:16;;;;;;;4.60;2.08;;;;;;;18.22;93.49;92797.28;4854852;29;20049;-79
2023/07/14 00:08:42;;;;;;;5.28;1.88;;;;;;;18.17;93.07;92799.34;4855148;29;20037;-79
2023/07/14 00:11:16;;;;;;;3.50;2.00;;;;;;;18.09;92.91;92796.47;4853757;29;20082;-80
2023/07/14 00:13:42;;;;;;;4.25;2.13;;;;;;;18.02;93.19;92801.50;4852897;29;20053;-79
2023/07/14 00:16:16;;;;;;;7.60;2.08;;;;;;;17.96;94.43;92808.09;4854478;29;20480;-79
2023/07/14 00:18:42;;;;;;;5.20;2.00;;;;;;;17.91;96.69;92799.59;4854191;29;20408;-79
2023/07/14 00:21:24;;;;;;;7.10;1.98;;;;;;;17.82;99.99;92802.28;4852175;29;20048;-79
2023/07/14 00:23:57;;;;;;;4.20;1.80;;;;;;;17.75;99.64;92799.38;4854274;29;20037;-79
2023/07/14 00:26:23;;;;;;;5.43;1.98;;;;;;;17.70;99.50;92797.69;4852993;29;20046;-79
2023/07/14 00:28:49;;;;;;;4.78;1.90;;;;;;;17.65;98.15;92798.66;4854057;29;20053;-80
2023/07/14 00:31:22;;;;;;;6.65;2.20;;;;;;;17.60;99.13;92796.16;4853812;29;20087;-80
2023/07/14 00:33:51;;;;;;;7.53;2.33;;;;;;;17.58;99.11;92793.06;4848480;29;20043;-80
2023/07/14 00:36:19;;;;;;;5.20;2.10;;;;;;;17.55;99.69;92798.25;4850040;29;20298;-79
2023/07/14 00:38:45;;;;;;;4.30;2.10;;;;;;;17.51;100.00;92798.09;4853588;29;20509;-79
2023/07/14 00:41:23;;;;;;;4.40;2.00;;;;;;;17.48;100.00;92798.75;4853929;29;20037;-79
2023/07/14 00:43:50;;;;;;;4.60;2.03;;;;;;;17.42;100.00;92792.09;4852093;29;20048;-79
2023/07/14 00:46:28;;;;;;;4.25;1.80;;;;;;;17.38;100.00;92796.47;4853031;29;20038;-79
2023/07/14 00:48:58;;;;;;;4.20;2.08;;;;;;;17.35;100.00;92787.31;4852824;29;20037;-79
2023/07/14 00:51:28;;;;;;;5.50;2.20;;;;;;;17.33;100.00;92780.78;4853850;29;20037;-79
2023/07/14 00:53:54;;;;;;;5.03;2.08;;;;;;;17.30;100.00;92784.09;4852305;29;20033;-79
2023/07/14 00:56:32;;;;;;;3.90;2.10;;;;;;;17.27;100.00;92788.91;4848043;29;20384;-79
2023/07/14 00:58:58;;;;;;;5.60;2.10;;;;;;;17.26;100.00;92789.22;4836975;29;20038;-79
2023/07/14 01:01:25;;;;;;;5.10;2.30;;;;;;;17.21;100.00;92790.19;4852788;29;20049;-79
2023/07/14 01:03:56;;;;;;;5.05;2.00;;;;;;;17.19;100.00;92786.31;4856295;29;20071;-79
2023/07/14 01:06:24;;;;;;;4.45;2.10;;;;;;;17.17;100.00;92789.25;4855137;29;20046;-79
2023/07/14 01:09:16;;;;;;;4.22;2.35;;;;;;;17.15;100.00;92793.31;4857498;29;20038;-79
2023/07/14 01:11:50;;;;;;;4.10;2.33;;;;;;;17.11;100.00;92790.53;4854294;29;20531;-79
2023/07/14 01:14:23;;;;;;;4.10;2.20;;;;;;;17.08;100.00;92801.00;4856013;29;20053;-79
2023/07/14 01:16:51;;;;;;;3.80;2.00;;;;;;;17.03;100.00;92796.66;4856130;29;20117;-78
2023/07/14 01:19:26;;;;;;;5.80;2.47;;;;;;;16.98;100.00;92797.63;4856323;29;20140;-79
2023/07/14 01:22:06;;;;;;;8.40;2.05;;;;;;;16.94;100.00;92801.97;4857614;29;20033;-79
2023/07/14 01:24:40;;;;;;;6.50;2.60;;;;;;;16.92;100.00;92792.81;4850214;29;20034;-79
2023/07/14 01:27:08;;;;;;;6.53;2.53;;;;;;;16.85;100.00;92798.59;4845259;29;20031;-80
2023/07/14 01:29:36;;;;;;;4.40;2.10;;;;;;;16.80;100.00;92796.91;4855800;29;20030;-80
2023/07/14 01:32:05;;;;;;;4.63;2.20;;;;;;;16.77;100.00;92799.38;4857398;29;20042;-79
2023/07/14 01:34:31;;;;;;;8.68;2.47;;;;;;;16.78;100.00;92808.84;4851345;29;20037;-79
2023/07/14 01:36:58;;;;;;;4.50;2.22;;;;;;;16.76;100.00;92803.09;4855855;29;20313;-79
2023/07/14 01:39:28;;;;;;;7.85;2.50;;;;;;;16.71;100.00;92801.41;4856389;29;20527;-80
2023/07/14 01:41:53;;;;;;;6.07;2.00;;;;;;;16.73;100.00;92803.72;4851865;29;20553;-78
2023/07/14 01:44:21;;;;;;;6.38;2.55;;;;;;;16.73;100.00;92801.09;4853410;29;20069;-79
2023/07/14 01:46:48;;;;;;;5.47;2.67;;;;;;;16.73;100.00;92799.22;4854460;29;20122;-79
2023/07/14 01:49:34;;;;;;;4.70;2.67;;;;;;;16.74;100.00;92797.38;4846979;29;20075;-79
2023/07/14 01:52:03;;;;;;;7.05;2.88;;;;;;;16.71;100.00;92801.41;4838685;29;20045;-79
2023/07/14 01:54:54;;;;;;;8.20;2.53;;;;;;;16.72;100.00;92805.59;4838188;29;20041;-79
2023/07/14 01:57:24;;;;;;;5.70;2.50;;;;;;;16.68;100.00;92807.31;4842339;29;20178;-79
2023/07/14 02:00:00;;;;;;;7.72;2.63;;;;;;;16.68;100.00;92804.66;4855253;29;20297;-79
2023/07/14 02:02:33;;;;;;;8.15;2.95;;;;;;;16.67;100.00;92799.72;4856564;29;20065;-79
2023/07/14 02:05:04;;;;;;;7.05;2.80;;;;;;;16.65;100.00;92813.25;4855643;29;20086;-79
2023/07/14 02:07:31;;;;;;;6.75;3.10;;;;;;;16.66;100.00;92812.13;4855813;29;20038;-78
2023/07/14 02:09:56;;;;;;;7.72;2.88;;;;;;;16.63;100.00;92820.72;4869522;29;20317;-79
2023/07/14 02:12:31;;;;;;;7.47;2.50;;;;;;;16.60;100.00;92816.06;4856832;29;20050;-79
2023/07/14 02:15:02;;;;;;;5.72;2.55;;;;;;;16.57;100.00;92820.13;4855114;29;20042;-79
2023/07/14 02:17:31;;;;;;;6.72;2.60;;;;;;;16.58;100.00;92820.88;4856568;29;20132;-79
2023/07/14 02:19:58;;;;;;;6.32;2.38;;;;;;;16.57;100.00;92824.59;4855533;29;20030;-80
2023/07/14 02:22:24;;;;;;;5.10;2.50;;;;;;;16.57;100.00;92825.41;4855170;29;20536;-79
2023/07/14 02:24:52;;;;;;;5.30;2.40;;;;;;;16.55;100.00;92824.94;4855838;29;20045;-79
2023/07/14 02:27:18;;;;;;;4.65;2.35;;;;;;;16.51;100.00;92825.88;4854314;29;20042;-79
2023/07/14 02:29:44;;;;;;;6.10;2.33;;;;;;;16.53;100.00;92828.97;4852939;29;20552;-79
2023/07/14 02:32:20;;;;;;;5.88;2.50;;;;;;;16.52;100.00;92838.00;4852878;29;20128;-79
2023/07/14 02:35:33;;;;;;;6.18;2.58;;;;;;;16.51;100.00;92841.72;4855527;29;20038;-79
2023/07/14 02:38:17;;;;;;;5.15;2.33;;;;;;;16.50;100.00;92829.59;4835847;29;20074;-79
2023/07/14 02:41:00;;;;;;;8.00;2.40;;;;;;;16.49;100.00;92828.81;4839679;29;20041;-80
2023/07/14 02:43:26;;;;;;;6.10;2.50;;;;;;;16.54;100.00;92830.53;4852522;29;20042;-79
2023/07/14 02:46:08;;;;;;;5.95;2.25;;;;;;;16.50;100.00;92819.78;4854752;29;20082;-78
2023/07/14 02:48:42;;;;;;;5.78;2.40;;;;;;;16.55;100.00;92829.41;4850323;29;20030;-79
2023/07/14 02:51:09;;;;;;;6.22;3.05;;;;;;;16.56;100.00;92828.34;4853769;29;20076;-80
2023/07/14 02:53:34;;;;;;;4.60;2.20;;;;;;;16.53;100.00;92818.41;4854015;29;20557;-79
2023/07/14 02:56:00;;;;;;;30.42;3.55;;;;;;;16.52;100.00;92824.78;4855357;29;20121;-79
2023/07/14 02:58:26;;;;;;;5.20;2.25;;;;;;;16.51;100.00;92820.59;4854950;29;20060;-79
2023/07/14 03:00:52;;;;;;;6.15;2.42;;;;;;;16.62;100.00;92817.28;4854803;29;20037;-79
2023/07/14 03:03:18;;;;;;;5.25;2.30;;;;;;;16.54;100.00;92822.59;4854552;29;20136;-79
2023/07/14 03:05:44;;;;;;;5.72;2.40;;;;;;;16.44;100.00;92816.56;4854531;29;20143;-79
2023/07/14 03:08:15;;;;;;;5.43;2.47;;;;;;;16.44;100.00;92826.34;4854394;29;20026;-79
2023/07/14 03:10:43;;;;;;;5.25;2.63;;;;;;;16.42;100.00;92824.03;4855964;29;20073;-79
2023/07/14 03:13:09;;;;;;;5.05;2.50;;;;;;;16.43;100.00;92824.78;4855347;29;20030;-79
2023/07/14 03:15:35;;;;;;;8.43;2.25;;;;;;;16.40;100.00;92823.56;4855486;29;20042;-79
2023/07/14 03:18:00;;;;;;;5.25;2.10;;;;;;;16.39;100.00;92816.72;4847609;29;20034;-80
2023/07/14 03:20:26;;;;;;;4.47;1.90;;;;;;;16.43;100.00;92820.28;4836985;29;20429;-80
2023/07/14 03:22:52;;;;;;;4.85;2.00;;;;;;;16.46;100.00;92818.91;4852946;29;20054;-79
2023/07/14 03:25:18;;;;;;;4.40;2.17;;;;;;;16.48;100.00;92819.34;4855262;29;20046;-80
2023/07/14 03:27:45;;;;;;;4.88;2.25;;;;;;;16.52;100.00;92816.84;4855336;29;20036;-79
2023/07/14 03:30:13;;;;;;;9.13;2.30;;;;;;;16.53;100.00;92818.41;4854691;29;20274;-79
2023/07/14 03:32:39;;;;;;;4.95;2.10;;;;;;;16.56;100.00;92823.06;4851900;29;20631;-79
2023/07/14 03:35:05;;;;;;;4.38;2.13;;;;;;;16.57;100.00;92824.59;4839880;29;20069;-79
2023/07/14 03:37:30;;;;;;;4.43;2.00;;;;;;;16.57;100.00;92820.13;4854802;29;20054;-79
2023/07/14 03:39:56;;;;;;;5.05;2.17;;;;;;;16.64;100.00;92820.41;4854778;29;20038;-79
2023/07/14 03:42:22;;;;;;;6.55;2.05;;;;;;;16.68;100.00;92831.09;4854538;29;20120;-79
2023/07/14 03:44:48;;;;;;;3.78;1.90;;;;;;;16.78;100.00;92820.19;4851860;29;20045;-79
2023/07/14 03:47:13;;;;;;;5.65;2.05;;;;;;;16.82;100.00;92821.16;4837596;29;20057;-80
2023/07/14 03:49:39;;;;;;;3.95;2.00;;;;;;;16.91;100.00;92813.19;4836011;29;20056;-79
2023/07/14 03:52:05;;;;;;;4.72;1.92;;;;;;;17.07;100.00;92829.31;4843489;29;20053;-79
2023/07/14 03:54:32;;;;;;;3.47;2.00;;;;;;;17.14;100.00;92826.94;4836909;29;20049;-79
2023/07/14 03:57:01;;;;;;;4.20;2.20;;;;;;;17.16;100.00;92830.06;4854173;29;20593;-79
2023/07/14 03:59:27;;;;;;;6.10;2.00;;;;;;;17.19;100.00;92824.13;4853656;29;20505;-79
2023/07/14 04:01:54;;;;;;;5.47;2.30;;;;;;;17.22;100.00;92822.69;4854471;29;20044;-79
2023/07/14 04:04:20;;;;;;;4.25;2.05;;;;;;;17.24;100.00;92815.22;4853749;29;20045;-79
2023/07/14 04:06:46;;;;;;;3.25;1.90;;;;;;;17.24;100.00;92816.00;4854532;29;20058;-79
2023/07/14 04:09:12;;;;;;;4.43;2.08;;;;;;;17.27;100.00;92815.38;4853583;29;20038;-79
2023/07/14 04:11:37;;;;;;;6.47;2.33;;;;;;;17.28;100.00;92816.91;4840803;29;20086;-79
2023/07/14 04:14:05;;;;;;;4.55;2.00;;;;;;;17.39;100.00;92824.50;4833738;29;20041;-78
2023/07/14 04:16:33;;;;;;;4.40;1.98;;;;;;;17.40;100.00;92818.09;4844603;29;20029;-78
2023/07/14 04:18:58;;;;;;;3.92;1.92;;;;;;;17.41;100.00;92824.94;4844544;29;20061;-77
2023/07/14 04:21:24;;;;;;;4.40;2.03;;;;;;;17.42;100.00;92816.69;4848011;29;20034;-79
2023/07/14 04:23:55;;;;;;;4.03;1.77;;;;;;;17.44;100.00;92809.19;4848482;29;20049;-82
2023/07/14 04:26:22;;;;;;;4.95;2.00;;;;;;;17.48;100.00;92814.63;4846302;29;20057;-79
2023/07/14 04:28:48;;;;;;;3.92;2.00;;;;;;;17.53;100.00;92819.72;4844116;29;20592;-79
2023/07/14 04:31:15;;;;;;;5.93;1.98;;;;;;;17.57;100.00;92823.28;4842463;29;20145;-79
2023/07/14 04:33:45;;;;;;;4.38;1.90;;;;;;;17.62;100.00;92820.44;4846776;29;20416;-80
2023/07/14 04:36:13;;;;;;;5.05;2.50;;;;;;;17.67;100.00;92820.28;4834527;29;20062;-79
2023/07/14 04:38:41;;;;;;;6.18;2.10;;;;;;;17.74;100.00;92826.91;4831461;29;20061;-79
2023/07/14 04:41:06;;;;;;;4.50;2.13;;;;;;;17.79;100.00;92826.75;4832876;29;20512;-79
2023/07/14 04:43:33;;;;;;;6.57;2.08;;;;;;;17.81;100.00;92828.00;4843350;29;20063;-78
2023/07/14 04:45:59;;;;;;;7.18;2.22;;;;;;;17.88;100.00;92822.97;4834652;29;20084;-79
2023/07/14 04:48:24;;;;;;;5.95;2.33;;;;;;;17.93;100.00;92824.66;4828297;29;20253;-78
2023/07/14 04:50:51;;;;;;;7.53;3.00;;;;;;;17.97;100.00;92824.75;4827450;29;20054;-78
2023/07/14 04:53:17;;;;;;;5.82;2.15;;;;;;;18.01;100.00;92829.09;4827511;29;20034;-78
2023/07/14 04:55:45;;;;;;;6.20;2.28;;;;;;;18.08;100.00;92821.41;4827359;29;20408;-79
2023/07/14 04:58:14;;;;;;;4.68;2.10;;;;;;;18.10;100.00;92824.50;4829164;29;20038;-79
2023/07/14 05:00:46;;;;;;;4.18;2.00;;;;;;;18.12;100.00;92826.06;4829803;29;20121;-79
2023/07/14 05:03:12;;;;;;;8.80;2.10;;;;;;;18.14;100.00;92821.22;4829264;29;20051;-79
2023/07/14 05:05:37;;;;;;;3.72;2.10;;;;;;;18.12;100.00;92831.34;4829181;29;20060;-79
2023/07/14 05:08:03;;;;;;;4.53;2.15;;;;;;;18.09;100.00;92827.47;4827975;29;20087;-79
2023/07/14 05:10:31;;;;;;;4.93;2.10;;;;;;;18.09;100.00;92828.25;4830427;29;20034;-79
2023/07/14 05:12:57;;;;;;;5.25;2.17;;;;;;;18.10;100.00;92829.00;4830290;29;20090;-79
2023/07/14 05:15:26;;;;;;;4.63;2.45;;;;;;;18.09;100.00;92836.19;4830170;29;20038;-79
2023/07/14 05:17:52;;;;;;;4.03;2.10;;;;;;;18.10;100.00;92839.63;4828845;29;20095;-79
2023/07/14 05:20:20;;;;;;;4.20;2.15;;;;;;;18.12;100.00;92839.28;4831064;29;20046;-79
2023/07/14 05:22:47;;;;;;;8.45;2.38;;;;;;;18.09;100.00;92838.06;4831300;29;20038;-79
2023/07/14 05:25:15;;;;;;;5.05;2.35;;;;;;;18.10;100.00;92843.06;4830340;29;20034;-79
2023/07/14 05:27:43;;;;;;;7.65;2.45;;;;;;;18.12;100.00;92847.25;4829925;29;20049;-79
2023/07/14 05:30:11;;;;;;;5.28;2.40;;;;;;;18.17;100.00;92844.38;4832191;29;20490;-79
2023/07/14 05:32:38;;;;;;;6.10;2.17;;;;;;;18.17;100.00;92855.00;4831217;29;20042;-79
2023/07/14 05:35:04;;;;;;;9.38;2.83;;;;;;;18.17;100.00;92836.44;4829641;29;20057;-78
2023/07/14 05:37:30;;;;;;;5.55;2.20;;;;;;;18.20;100.00;92847.19;4833965;29;20050;-78
2023/07/14 05:39:55;;;;;;;4.70;2.33;;;;;;;18.24;100.00;92852.63;4841090;29;20057;-78
2023/07/14 05:42:21;;;;;;;5.57;2.20;;;;;;;18.25;100.00;92856.81;4842588;29;20050;-79
2023/07/14 05:44:47;;;;;;;7.65;2.08;;;;;;;18.25;100.00;92856.81;4847300;29;20091;-79
2023/07/14 05:47:13;;;;;;;4.65;2.35;;;;;;;18.26;100.00;92853.84;4852045;29;20041;-78
2023/07/14 05:49:39;;;;;;;5.20;2.30;;;;;;;18.23;100.00;92851.81;4849164;29;20171;-77
2023/07/14 05:52:05;;;;;;;3.85;2.00;;;;;;;18.25;100.00;92854.91;4852717;29;20424;-78
2023/07/14 05:54:30;;;;;;;5.05;2.03;;;;;;;18.25;100.00;92856.81;4854164;29;20038;-78
2023/07/14 05:56:56;;;;;;;5.60;2.35;;;;;;;18.27;100.00;92854.59;4854723;29;20052;-78
2023/07/14 05:59:22;;;;;;;4.40;2.10;;;;;;;18.26;100.00;92868.94;4853752;29;20063;-80
2023/07/14 06:01:48;;;;;;;7.32;2.17;;;;;;;18.26;100.00;92861.78;4850026;29;20053;-79
2023/07/14 06:04:15;;;;;;;4.70;1.92;;;;;;;18.27;100.00;92855.38;4848585;29;20108;-78
2023/07/14 06:06:42;;;;;;;5.40;2.22;;;;;;;18.33;100.00;92858.63;4847393;29;20751;-79
2023/07/14 06:09:09;;;;;;;7.63;2.28;;;;;;;18.31;100.00;92863.47;4849227;29;20417;-79
2023/07/14 06:11:35;;;;;;;4.88;2.17;;;;;;;18.33;100.00;92863.13;4848863;29;20527;-79
2023/07/14 06:14:01;;;;;;;3.40;2.08;;;;;;;18.33;100.00;92861.28;4833310;29;20030;-80
2023/07/14 06:16:27;;;;;;;7.45;2.45;;;;;;;18.34;100.00;92870.75;4849387;29;20502;-79
2023/07/14 06:18:53;;;;;;;8.40;2.30;;;;;;;18.37;100.00;92870.09;4849453;29;20061;-79
2023/07/14 06:21:19;;;;;;;6.88;2.13;;;;;;;18.39;100.00;92870.53;4849743;29;20106;-79
2023/07/14 06:23:44;;;;;;;6.10;2.90;;;;;;;18.42;100.00;92867.25;4848847;29;20030;-79
2023/07/14 06:26:10;;;;;;;5.53;2.22;;;;;;;18.46;100.00;92870.03;4845877;29;20128;-79
2023/07/14 06:28:36;;;;;;;4.53;2.30;;;;;;;18.49;100.00;92882.66;4848609;29;20037;-79
2023/07/14 06:31:05;;;;;;;4.72;2.20;;;;;;;18.53;100.00;92870.28;4848006;29;20333;-79
2023/07/14 06:33:32;;;;;;;8.40;2.35;;;;;;;18.59;100.00;92874.28;4848063;29;20445;-79
2023/07/14 06:35:58;;;;;;;5.07;2.30;;;;;;;18.64;100.00;92876.75;4848194;29;20061;-79
2023/07/14 06:38:28;;;;;;;4.82;2.28;;;;;;;18.69;100.00;92871.22;4846647;29;20042;-79
2023/07/14 06:40:58;;;;;;;6.10;2.50;;;;;;;18.78;100.00;92873.84;4848363;29;20053;-79
2023/07/14 06:43:24;;;;;;;5.53;2.42;;;;;;;18.84;100.00;92877.03;4847860;29;20388;-79
2023/07/14 06:45:50;;;;;;;4.68;2.20;;;;;;;18.90;100.00;92871.19;4847489;29;20061;-79
2023/07/14 06:48:16;;;;;;;5.35;2.42;;;;;;;18.96;100.00;92870.97;4847718;29;20540;-79
2023/07/14 06:50:42;;;;;;;4.68;2.15;;;;;;;19.02;100.00;92872.31;4847541;29;20114;-79
2023/07/14 06:53:08;;;;;;;4.32;2.30;;;;;;;19.13;100.00;92868.16;4847583;29;20038;-79
2023/07/14 06:55:39;;;;;;;4.30;2.30;;;;;;;19.27;100.00;92873.94;4848289;29;20568;-79
2023/07/14 06:58:06;;;;;;;4.70;2.30;;;;;;;19.28;100.00;92872.81;4847488;29;20073;-81
2023/07/14 07:00:33;;;;;;;4.93;2.47;;;;;;;19.33;100.00;92882.44;4845905;29;20499;-79
2023/07/14 07:03:03;;;;;;;6.30;2.33;;;;;;;19.09;100.00;92877.84;4847903;29;20045;-80
2023/07/14 07:05:30;;;;;;;5.60;2.80;;;;;;;18.96;100.00;92881.59;4845475;29;20337;-79
2023/07/14 07:07:55;;;;;;;4.47;2.20;;;;;;;18.97;100.00;92880.50;4845925;29;20026;-79
2023/07/14 07:10:21;;;;;;;5.10;2.30;;;;;;;19.01;100.00;92876.09;4846191;29;20060;-78
2023/07/14 07:12:47;;;;;;;5.45;2.55;;;;;;;19.08;100.00;92878.97;4845081;29;20050;-79
2023/07/14 07:15:13;;;;;;;6.97;2.80;;;;;;;19.15;100.00;92876.56;4846222;29;20277;-80
2023/07/14 07:17:38;;;;;;;4.40;2.33;;;;;;;19.26;100.00;92877.66;4846069;29;20226;-78
2023/07/14 07:20:08;;;;;;;6.60;2.38;;;;;;;19.31;100.00;92877.44;4845594;29;20034;-79
2023/07/14 07:22:35;;;;;;;5.95;2.75;;;;;;;19.31;100.00;92882.75;4844325;29;20381;-80
2023/07/14 07:25:02;;;;;;;8.18;2.58;;;;;;;19.35;100.00;92882.88;4843779;29;20511;-79
2023/07/14 07:27:28;;;;;;;3.97;2.20;;;;;;;19.16;100.00;92879.97;4844052;29;20033;-79
2023/07/14 07:29:54;;;;;;;4.78;2.05;;;;;;;19.03;100.00;92887.16;4843394;29;20038;-79
2023/07/14 07:32:20;;;;;;;6.15;2.60;;;;;;;19.01;100.00;92889.34;4842903;29;20133;-79
2023/07/14 07:34:46;;;;;;;9.23;2.65;;;;;;;18.96;100.00;92878.94;4844779;29;20489;-78
2023/07/14 07:37:13;;;;;;;4.32;2.30;;;;;;;18.93;100.00;92888.31;4844826;29;20099;-78
2023/07/14 07:39:39;;;;;;;5.40;2.78;;;;;;;18.93;100.00;92881.13;4845342;29;20349;-79
2023/07/14 07:42:06;;;;;;;6.22;2.75;;;;;;;19.00;100.00;92882.50;4843080;29;20054;-78
2023/07/14 07:44:32;;;;;;;5.93;2.40;;;;;;;19.04;100.00;92891.34;4842616;29;20041;-79
2023/07/14 07:46:58;;;;;;;4.93;2.33;;;;;;;19.11;100.00;92895.00;4845824;29;20045;-79
2023/07/14 07:49:24;;;;;;;7.97;2.67;;;;;;;19.14;100.00;92886.41;4845537;29;20063;-79
2023/07/14 07:51:50;;;;;;;5.43;2.75;;;;;;;19.15;100.00;92887.16;4842817;29;20069;-78
2023/07/14 07:54:15;;;;;;;5.53;2.20;;;;;;;19.11;100.00;92883.63;4842666;29;20038;-79
2023/07/14 07:56:42;;;;;;;6.90;2.67;;;;;;;19.18;100.00;92883.84;4843067;29;20054;-79
2023/07/14 07:59:15;;;;;;;4.93;2.65;;;;;;;19.21;100.00;92885.84;4844222;29;20504;-79
2023/07/14 08:01:42;;;;;;;6.25;2.63;;;;;;;19.24;100.00;92884.41;4843863;29;20046;-79
2023/07/14 08:04:09;;;;;;;4.32;2.30;;;;;;;19.40;100.00;92881.88;4844541;29;20037;-79
2023/07/14 08:06:36;;;;;;;4.70;2.50;;;;;;;19.38;100.00;92878.78;4843982;29;20074;-79
2023/07/14 08:09:03;;;;;;;4.43;2.38;;;;;;;19.43;100.00;92881.22;4843992;29;20062;-78
2023/07/14 08:11:30;;;;;;;4.57;2.50;;;;;;;19.46;100.00;92883.22;4840746;29;20126;-79
2023/07/14 08:13:58;;;;;;;6.40;2.53;;;;;;;19.65;100.00;92888.75;4826951;29;20030;-79
2023/07/14 08:16:25;;;;;;;5.43;2.60;;;;;;;19.66;100.00;92889.53;4824902;29;20065;-78
2023/07/14 08:18:51;;;;;;;4.45;2.45;;;;;;;19.76;100.00;92889.88;4825742;29;20053;-78
2023/07/14 08:21:17;;;;;;;5.20;2.75;;;;;;;19.72;100.00;92883.69;4826131;29;20087;-78
2023/07/14 08:23:43;;;;;;;7.20;2.72;;;;;;;19.75;100.00;92879.59;4825770;29;20121;-77
2023/07/14 08:26:09;;;;;;;7.97;2.83;;;;;;;19.73;100.00;92874.63;4823794;29;20125;-79
2023/07/14 08:28:35;;;;;;;7.57;3.20;;;;;;;19.96;100.00;92879.47;4808872;29;20057;-79
2023/07/14 08:31:04;;;;;;;5.63;2.80;;;;;;;19.93;100.00;92872.16;4825243;29;20129;-78
2023/07/14 08:33:30;;;;;;;8.35;2.75;;;;;;;19.96;100.00;92871.50;4825758;29;20496;-78
2023/07/14 08:36:00;;;;;;;9.15;2.53;;;;;;;19.94;100.00;92871.03;4825814;29;20512;-78
2023/07/14 08:38:27;;;;;;;5.45;2.70;;;;;;;19.93;100.00;92874.81;4824884;29;20050;-78
2023/07/14 08:41:04;;;;;;;6.00;2.60;;;;;;;20.11;100.00;92867.38;4823715;29;20416;-78
2023/07/14 08:43:49;;;;;;;5.40;2.53;;;;;;;19.96;100.00;92866.19;4834783;29;20402;-79
2023/07/14 08:46:21;;;;;;;6.28;2.78;;;;;;;19.89;100.00;92876.59;4842532;29;20037;-77
2023/07/14 08:49:22;;;;;;;8.50;2.67;;;;;;;19.82;100.00;92882.47;4835120;29;20022;-78
2023/07/14 08:51:58;;;;;;;9.93;3.08;;;;;;;19.64;100.00;92875.81;4836936;29;20083;-80
2023/07/14 08:54:28;;;;;;;9.65;3.08;;;;;;;19.53;100.00;92870.16;4827774;29;20065;-79
2023/07/14 08:56:55;;;;;;;8.98;2.50;;;;;;;19.49;100.00;92869.28;4841973;29;20515;-80
2023/07/14 08:59:41;;;;;;;5.82;2.70;;;;;;;19.58;100.00;92875.25;4843470;29;20042;-81
2023/07/14 09:02:25;;;;;;;11.77;3.00;;;;;;;19.61;100.00;92879.13;4837250;29;20080;-82
2023/07/14 09:05:04;;;;;;;5.78;2.70;;;;;;;19.60;100.00;92870.38;4838400;29;20041;-79
2023/07/14 09:07:30;;;;;;;5.40;2.75;;;;;;;19.74;100.00;92868.19;4839318;29;20500;-78
2023/07/14 09:09:57;;;;;;;9.63;2.90;;;;;;;19.52;100.00;92874.72;4842206;29;20318;-80
2023/07/14 09:12:37;;;;;;;10.27;3.50;;;;;;;19.49;100.00;92872.69;4840092;29;20129;-79
2023/07/14 09:15:19;;;;;;;7.13;2.90;;;;;;;19.31;100.00;92866.84;4843671;29;20105;-79
2023/07/14 09:17:49;;;;;;;6.23;2.83;;;;;;;19.18;100.00;92865.25;4842184;29;20053;-79
2023/07/14 09:20:41;;;;;;;6.57;3.58;;;;;;;19.18;100.00;92870.56;4843037;29;20286;-78
2023/07/14 09:23:21;;;;;;;7.60;3.00;;;;;;;19.19;100.00;92871.38;4842783;29;20099;-80
2023/07/14 09:25:59;;;;;;;7.63;3.10;;;;;;;19.23;100.00;92878.34;4847167;29;20049;-80
2023/07/14 09:28:41;;;;;;;9.80;3.50;;;;;;;19.29;100.00;92874.34;4846874;29;20070;-79
2023/07/14 09:31:26;;;;;;;;;;;;;;;19.38;100.00;92878.78;4847920;29;20034;-79
2023/07/14 09:33:58;;;;;;;8.52;3.13;;;;;;;19.43;100.00;92878.56;4846647;29;19916;-79
2023/07/14 09:36:24;;;;;;;8.45;3.42;;;;;;;19.48;100.00;92881.03;4845728;29;20062;-79
2023/07/14 09:38:59;;;;;;;5.97;3.13;;;;;;;19.47;100.00;92879.44;4846372;29;20046;-79
2023/07/14 09:41:28;;;;;;;6.85;3.38;;;;;;;19.54;100.00;92882.31;4845916;29;20484;-80
2023/07/14 09:44:00;;;;;;;7.57;2.92;;;;;;;19.57;100.00;92892.31;4847049;29;20026;-79
2023/07/14 09:46:37;;;;;;;10.20;3.80;;;;;;;19.54;100.00;92885.78;4829494;29;20042;-81
2023/07/14 09:49:12;;;;;;;6.55;3.28;;;;;;;19.59;100.00;92895.41;4840485;29;20059;-80
2023/07/14 09:51:38;;;;;;;6.32;3.55;;;;;;;19.49;100.00;92903.78;4827522;29;20134;-80
2023/07/14 09:54:12;;;;;;;9.52;4.28;;;;;;;19.45;100.00;92902.91;4846341;29;20065;-82
2023/07/14 09:56:42;;;;;;;8.00;3.40;;;;;;;19.34;100.00;92898.03;4853067;29;20049;-80
2023/07/14 09:59:49;;;;;;;7.40;3.40;;;;;;;19.30;100.00;92910.41;4845938;29;20378;-81
2023/07/14 10:02:16;;;;;;;9.70;3.25;;;;;;;19.26;100.00;92903.44;4839861;29;20443;-80
2023/07/14 10:04:47;;;;;;;8.95;3.35;;;;;;;19.18;100.00;92904.31;4831899;29;20037;-80
2023/07/14 10:07:22;;;;;;;6.53;3.60;;;;;;;18.86;100.00;92901.34;4840809;29;20081;-80
2023/07/14 10:10:07;;;;;;;9.07;3.15;;;;;;;18.73;100.00;92903.16;4845113;29;20038;-80
2023/07/14 10:13:13;;;;;;;5.93;3.10;;;;;;;18.73;100.00;92900.50;4843380;29;20045;-82
2023/07/14 10:15:39;;;;;;;5.85;3.47;;;;;;;18.75;100.00;92906.25;4845638;29;20037;-82
2023/07/14 10:18:12;;;;;;;8.27;3.45;;;;;;;18.61;100.00;92913.72;4846262;29;20054;-81
2023/07/14 10:20:39;;;;;;;7.57;3.50;;;;;;;18.50;100.00;92903.50;4841533;29;20037;-80
2023/07/14 10:23:14;;;;;;;7.50;3.35;;;;;;;18.53;100.00;92910.06;4845608;29;20109;-80
2023/07/14 10:25:40;;;;;;;7.20;3.40;;;;;;;18.60;100.00;92910.31;4841702;29;20049;-82
2023/07/14 10:28:16;;;;;;;7.50;3.25;;;;;;;18.71;100.00;92914.09;4840910;29;20033;-83
2023/07/14 10:30:57;;;;;;;9.68;3.72;;;;;;;18.70;100.00;92917.06;4843838;29;20046;-83
2023/07/14 10:33:33;;;;;;;12.38;3.92;;;;;;;18.78;100.00;92908.31;4833856;29;20038;-80
2023/07/14 10:36:06;;;;;;;10.68;3.70;;;;;;;18.88;100.00;92905.22;4845687;29;20464;-80
2023/07/14 10:38:37;;;;;;;9.82;3.47;;;;;;;19.04;100.00;92912.56;4841805;29;20034;-80
2023/07/14 10:41:07;;;;;;;8.25;4.18;;;;;;;19.19;100.00;92914.59;4844406;29;20045;-81
2023/07/14 10:43:45;;;;;;;8.65;4.03;;;;;;;19.31;100.00;92911.94;4845758;29;20409;-80
2023/07/14 10:46:19;;;;;;;8.20;4.20;;;;;;;19.43;100.00;92910.41;4846584;29;20041;-79
2023/07/14 10:48:55;;;;;;;9.65;4.10;;;;;;;19.53;100.00;92915.31;4846525;29;20030;-81
2023/07/14 10:51:36;;;;;;;8.82;4.28;;;;;;;19.58;100.00;92909.78;4845595;29;20120;-79
2023/07/14 10:54:11;;;;;;;14.88;4.80;;;;;;;19.70;100.00;92903.72;4844231;29;20382;-80
2023/07/14 10:56:49;;;;;;;9.95;5.18;;;;;;;19.83;100.00;92904.47;4832081;29;20044;-80
2023/07/14 10:59:26;;;;;;;9.25;5.35;;;;;;;19.93;100.00;92901.38;4829340;29;20044;-81
2023/07/14 11:01:58;;;;;;;10.77;5.15;;;;;;;19.97;100.00;92910.22;4841214;29;20125;-81
2023/07/14 11:04:49;;;;;;;12.85;5.82;;;;;;;20.01;100.00;92908.44;4838132;29;20069;-80
2023/07/14 11:07:29;;;;;;;10.63;5.50;;;;;;;20.06;100.00;92902.94;4831931;29;20049;-80
2023/07/14 11:09:59;;;;;;;10.85;5.07;;;;;;;20.00;100.00;92900.84;4836885;29;20560;-80
2023/07/14 11:12:34;;;;;;;10.15;5.40;;;;;;;20.06;100.00;92894.94;4837518;29;20042;-80
2023/07/14 11:15:16;;;;;;;14.95;6.57;;;;;;;20.10;100.00;92901.13;4842093;29;20053;-79
2023/07/14 11:17:57;;;;;;;12.70;7.10;;;;;;;20.16;100.00;92907.00;4844357;29;20076;-80
2023/07/14 11:20:44;;;;;;;8.07;4.50;;;;;;;19.79;100.00;92904.38;4846674;29;20037;-81
2023/07/14 11:23:31;;;;;;;9.80;5.30;;;;;;;19.68;100.00;92908.53;4830232;29;20436;-81
2023/07/14 11:26:20;;;;;;;11.23;4.55;;;;;;;19.51;100.00;92905.00;4845297;29;20408;-78
2023/07/14 11:29:00;;;;;;;10.82;5.20;;;;;;;19.35;100.00;92901.47;4844156;29;20183;-78
2023/07/14 11:31:33;;;;;;;10.65;6.55;;;;;;;19.53;100.00;92907.34;4836117;29;20056;-77
2023/07/14 11:34:25;;;;;;;15.38;6.30;;;;;;;19.39;100.00;92906.91;4828883;29;20408;-79
2023/07/14 11:36:58;;;;;;;12.85;6.65;;;;;;;19.33;100.00;92903.66;4829897;29;20166;-79
2023/07/14 11:39:38;;;;;;;12.40;6.68;;;;;;;19.43;100.00;92910.41;4841920;29;20426;-78